Lisnaskea, United Kingdom
Current Conditions -  °F | °C
As of 7:50 AM on Friday 31 Oct 2014 (Local Time) from EGAE Reporting Station
Scattered Clouds Scattered Clouds  
Wind Chill: 63°   Ceiling: Unl
Heat Index: 63°   Visibility: 6mi
Dew Point: 57°   Wind: 16mph
Humidity: 82%   Direction: 180°S
Pressure: 29.59"   Gusts: 28mph
Location:  54.25°N, 7.45°W
Report Text: EGAE 310750Z 18014G24KT 9999 SCT022 17/14 Q1002
Loading
Personal Weather Stations






























Interactive Weather Map
Tropical Storm Tracking
New forecast layout! Learn more

10-Day Weather Forecast

Advertisements
Track Severe Weather on mobile